sensor_id;sensor_type;location;lat;lon;timestamp;temperature;humidity
9425;DHT22;17139;52.140;11.636;2023-02-16T00:01:16;0.80;64.50
9425;DHT22;17139;52.140;11.636;2023-02-16T00:03:44;0.80;64.60
9425;DHT22;17139;52.140;11.636;2023-02-16T00:06:12;0.70;64.80
9425;DHT22;17139;52.140;11.636;2023-02-16T00:08:44;0.80;64.90
9425;DHT22;17139;52.140;11.636;2023-02-16T00:11:16;0.80;64.50
9425;DHT22;17139;52.140;11.636;2023-02-16T00:14:02;1.60;63.30
9425;DHT22;17139;52.140;11.636;2023-02-16T00:16:32;1.30;63.00
9425;DHT22;17139;52.140;11.636;2023-02-16T00:18:59;1.10;63.40
9425;DHT22;17139;52.140;11.636;2023-02-16T00:21:26;1.00;63.90
9425;DHT22;17139;52.140;11.636;2023-02-16T00:23:54;0.90;64.20
9425;DHT22;17139;52.140;11.636;2023-02-16T00:26:23;0.80;64.40
9425;DHT22;17139;52.140;11.636;2023-02-16T00:28:52;0.80;64.50
9425;DHT22;17139;52.140;11.636;2023-02-16T00:31:21;0.70;64.60
9425;DHT22;17139;52.140;11.636;2023-02-16T00:33:53;0.70;64.60
9425;DHT22;17139;52.140;11.636;2023-02-16T00:36:20;0.70;64.60
9425;DHT22;17139;52.140;11.636;2023-02-16T00:38:47;1.10;64.10
9425;DHT22;17139;52.140;11.636;2023-02-16T00:41:16;1.10;63.30
9425;DHT22;17139;52.140;11.636;2023-02-16T00:43:58;1.10;63.60
9425;DHT22;17139;52.140;11.636;2023-02-16T00:46:25;1.00;63.50
9425;DHT22;17139;52.140;11.636;2023-02-16T00:48:54;0.90;63.70
9425;DHT22;17139;52.140;11.636;2023-02-16T00:51:21;0.80;64.00
9425;DHT22;17139;52.140;11.636;2023-02-16T00:53:48;0.70;64.10
9425;DHT22;17139;52.140;11.636;2023-02-16T00:56:17;0.70;64.40
9425;DHT22;17139;52.140;11.636;2023-02-16T00:58:48;0.60;64.40
9425;DHT22;17139;52.140;11.636;2023-02-16T01:01:17;0.60;64.50
9425;DHT22;17139;52.140;11.636;2023-02-16T01:03:47;0.50;64.50
9425;DHT22;17139;52.140;11.636;2023-02-16T01:06:15;0.50;64.50
9425;DHT22;17139;52.140;11.636;2023-02-16T01:09:11;0.50;64.60
9425;DHT22;17139;52.140;11.636;2023-02-16T01:11:56;0.50;64.60
9425;DHT22;17139;52.140;11.636;2023-02-16T01:14:24;1.00;64.10
9425;DHT22;17139;52.140;11.636;2023-02-16T01:16:51;0.90;63.30
9425;DHT22;17139;52.140;11.636;2023-02-16T01:19:19;0.70;63.70
9425;DHT22;17139;52.140;11.636;2023-02-16T01:21:47;1.40;63.10
9425;DHT22;17139;52.140;11.636;2023-02-16T01:24:14;1.20;62.60
9425;DHT22;17139;52.140;11.636;2023-02-16T01:26:43;0.90;63.10
9425;DHT22;17139;52.140;11.636;2023-02-16T01:29:13;0.70;63.70
9425;DHT22;17139;52.140;11.636;2023-02-16T01:31:41;0.60;64.00
9425;DHT22;17139;52.140;11.636;2023-02-16T01:34:09;0.60;64.30
9425;DHT22;17139;52.140;11.636;2023-02-16T01:36:38;0.60;64.40
9425;DHT22;17139;52.140;11.636;2023-02-16T01:39:10;0.50;64.40
9425;DHT22;17139;52.140;11.636;2023-02-16T01:41:49;0.50;64.40
9425;DHT22;17139;52.140;11.636;2023-02-16T01:44:22;0.50;64.50
9425;DHT22;17139;52.140;11.636;2023-02-16T01:46:51;0.40;64.50
9425;DHT22;17139;52.140;11.636;2023-02-16T01:49:20;0.40;64.50
9425;DHT22;17139;52.140;11.636;2023-02-16T01:51:52;0.90;63.80
9425;DHT22;17139;52.140;11.636;2023-02-16T01:54:33;1.40;62.50
9425;DHT22;17139;52.140;11.636;2023-02-16T01:57:04;1.10;62.30
9425;DHT22;17139;52.140;11.636;2023-02-16T01:59:40;0.80;63.00
9425;DHT22;17139;52.140;11.636;2023-02-16T02:02:13;0.60;63.60
9425;DHT22;17139;52.140;11.636;2023-02-16T02:04:44;0.50;64.10
9425;DHT22;17139;52.140;11.636;2023-02-16T02:07:35;0.40;63.60
9425;DHT22;17139;52.140;11.636;2023-02-16T02:10:10;0.30;64.50
9425;DHT22;17139;52.140;11.636;2023-02-16T02:12:47;0.30;64.50
9425;DHT22;17139;52.140;11.636;2023-02-16T02:15:17;0.30;64.50
9425;DHT22;17139;52.140;11.636;2023-02-16T02:17:45;0.20;64.50
9425;DHT22;17139;52.140;11.636;2023-02-16T02:20:18;0.60;64.40
9425;DHT22;17139;52.140;11.636;2023-02-16T02:23:20;0.80;63.80
9425;DHT22;17139;52.140;11.636;2023-02-16T02:29:26;0.50;64.00
9425;DHT22;17139;52.140;11.636;2023-02-16T02:32:01;0.40;64.30
9425;DHT22;17139;52.140;11.636;2023-02-16T02:34:41;0.30;64.50
9425;DHT22;17139;52.140;11.636;2023-02-16T02:37:17;0.20;64.50
9425;DHT22;17139;52.140;11.636;2023-02-16T02:39:51;0.20;64.50
9425;DHT22;17139;52.140;11.636;2023-02-16T02:42:24;0.20;64.50
9425;DHT22;17139;52.140;11.636;2023-02-16T02:44:58;0.20;64.40
9425;DHT22;17139;52.140;11.636;2023-02-16T02:47:37;0.20;64.40
9425;DHT22;17139;52.140;11.636;2023-02-16T02:50:38;0.20;64.50
9425;DHT22;17139;52.140;11.636;2023-02-16T02:53:11;0.20;64.40
9425;DHT22;17139;52.140;11.636;2023-02-16T02:55:46;0.90;63.50
9425;DHT22;17139;52.140;11.636;2023-02-16T02:58:34;0.80;62.80
9425;DHT22;17139;52.140;11.636;2023-02-16T03:01:21;0.60;63.30
9425;DHT22;17139;52.140;11.636;2023-02-16T03:03:51;0.50;63.70
9425;DHT22;17139;52.140;11.636;2023-02-16T03:06:24;0.40;64.00
9425;DHT22;17139;52.140;11.636;2023-02-16T03:08:56;0.40;64.10
9425;DHT22;17139;52.140;11.636;2023-02-16T03:11:26;0.30;64.10
9425;DHT22;17139;52.140;11.636;2023-02-16T03:14:14;0.30;64.10
9425;DHT22;17139;52.140;11.636;2023-02-16T03:16:44;0.30;64.20
9425;DHT22;17139;52.140;11.636;2023-02-16T03:19:14;0.30;64.30
9425;DHT22;17139;52.140;11.636;2023-02-16T03:22:00;0.30;64.40
9425;DHT22;17139;52.140;11.636;2023-02-16T03:24:45;0.20;64.30
9425;DHT22;17139;52.140;11.636;2023-02-16T03:27:33;0.20;64.40
9425;DHT22;17139;52.140;11.636;2023-02-16T03:30:20;0.30;64.50
9425;DHT22;17139;52.140;11.636;2023-02-16T03:32:50;0.30;64.50
9425;DHT22;17139;52.140;11.636;2023-02-16T03:35:18;0.20;64.40
9425;DHT22;17139;52.140;11.636;2023-02-16T03:37:45;0.20;64.40
9425;DHT22;17139;52.140;11.636;2023-02-16T03:40:15;0.20;64.40
9425;DHT22;17139;52.140;11.636;2023-02-16T03:42:59;0.20;64.40
9425;DHT22;17139;52.140;11.636;2023-02-16T03:45:27;0.20;64.40
9425;DHT22;17139;52.140;11.636;2023-02-16T03:47:56;0.20;64.40
9425;DHT22;17139;52.140;11.636;2023-02-16T03:50:23;0.30;64.50
9425;DHT22;17139;52.140;11.636;2023-02-16T03:52:52;0.30;64.30
9425;DHT22;17139;52.140;11.636;2023-02-16T03:55:31;0.90;64.10
9425;DHT22;17139;52.140;11.636;2023-02-16T03:57:59;0.80;63.10
9425;DHT22;17139;52.140;11.636;2023-02-16T04:00:27;0.70;63.30
9425;DHT22;17139;52.140;11.636;2023-02-16T04:02:55;1.20;63.60
9425;DHT22;17139;52.140;11.636;2023-02-16T04:05:23;1.00;62.70
9425;DHT22;17139;52.140;11.636;2023-02-16T04:07:50;0.90;63.10
9425;DHT22;17139;52.140;11.636;2023-02-16T04:10:17;0.70;63.40
9425;DHT22;17139;52.140;11.636;2023-02-16T04:12:45;0.70;63.70
9425;DHT22;17139;52.140;11.636;2023-02-16T04:15:12;0.60;63.70
9425;DHT22;17139;52.140;11.636;2023-02-16T04:17:40;0.60;63.90
9425;DHT22;17139;52.140;11.636;2023-02-16T04:20:10;0.50;63.90
9425;DHT22;17139;52.140;11.636;2023-02-16T04:22:38;0.60;64.10
9425;DHT22;17139;52.140;11.636;2023-02-16T04:25:06;0.50;64.10
9425;DHT22;17139;52.140;11.636;2023-02-16T04:27:34;0.50;64.10
9425;DHT22;17139;52.140;11.636;2023-02-16T04:30:02;0.50;64.10
9425;DHT22;17139;52.140;11.636;2023-02-16T04:32:29;0.50;64.20
9425;DHT22;17139;52.140;11.636;2023-02-16T04:34:56;0.60;64.40
9425;DHT22;17139;52.140;11.636;2023-02-16T04:37:25;1.10;64.20
9425;DHT22;17139;52.140;11.636;2023-02-16T04:39:52;1.00;63.20
9425;DHT22;17139;52.140;11.636;2023-02-16T04:42:19;0.80;63.40
9425;DHT22;17139;52.140;11.636;2023-02-16T04:44:46;0.70;63.70
9425;DHT22;17139;52.140;11.636;2023-02-16T04:47:14;0.60;63.90
9425;DHT22;17139;52.140;11.636;2023-02-16T04:49:41;0.60;64.00
9425;DHT22;17139;52.140;11.636;2023-02-16T04:52:09;0.50;64.10
9425;DHT22;17139;52.140;11.636;2023-02-16T04:54:38;0.50;64.20
9425;DHT22;17139;52.140;11.636;2023-02-16T04:57:06;0.50;64.20
9425;DHT22;17139;52.140;11.636;2023-02-16T04:59:33;0.40;64.20
9425;DHT22;17139;52.140;11.636;2023-02-16T05:02:00;0.40;64.20
9425;DHT22;17139;52.140;11.636;2023-02-16T05:04:27;0.70;64.40
9425;DHT22;17139;52.140;11.636;2023-02-16T05:06:55;0.70;64.40
9425;DHT22;17139;52.140;11.636;2023-02-16T05:09:23;0.60;63.80
9425;DHT22;17139;52.140;11.636;2023-02-16T05:11:51;0.70;64.30
9425;DHT22;17139;52.140;11.636;2023-02-16T05:14:36;0.60;63.80
9425;DHT22;17139;52.140;11.636;2023-02-16T05:17:11;0.50;64.00
9425;DHT22;17139;52.140;11.636;2023-02-16T05:19:39;0.50;64.20
9425;DHT22;17139;52.140;11.636;2023-02-16T05:22:07;0.40;64.30
9425;DHT22;17139;52.140;11.636;2023-02-16T05:24:34;0.30;64.30
9425;DHT22;17139;52.140;11.636;2023-02-16T05:27:05;0.30;64.40
9425;DHT22;17139;52.140;11.636;2023-02-16T05:29:33;0.30;64.40
9425;DHT22;17139;52.140;11.636;2023-02-16T05:32:00;0.30;64.50
9425;DHT22;17139;52.140;11.636;2023-02-16T05:34:28;0.20;64.40
9425;DHT22;17139;52.140;11.636;2023-02-16T05:36:55;0.20;64.40
9425;DHT22;17139;52.140;11.636;2023-02-16T05:39:23;0.80;64.20
9425;DHT22;17139;52.140;11.636;2023-02-16T05:41:50;1.20;62.90
9425;DHT22;17139;52.140;11.636;2023-02-16T05:44:18;1.00;62.50
9425;DHT22;17139;52.140;11.636;2023-02-16T05:46:45;0.80;63.10
9425;DHT22;17139;52.140;11.636;2023-02-16T05:49:16;0.60;63.60
9425;DHT22;17139;52.140;11.636;2023-02-16T05:51:44;0.50;63.90
9425;DHT22;17139;52.140;11.636;2023-02-16T05:54:11;0.40;64.20
9425;DHT22;17139;52.140;11.636;2023-02-16T05:56:43;0.30;64.30
9425;DHT22;17139;52.140;11.636;2023-02-16T05:59:11;0.30;64.40
9425;DHT22;17139;52.140;11.636;2023-02-16T06:01:40;0.30;64.40
9425;DHT22;17139;52.140;11.636;2023-02-16T06:04:08;0.30;64.50
9425;DHT22;17139;52.140;11.636;2023-02-16T06:06:36;0.20;64.40
9425;DHT22;17139;52.140;11.636;2023-02-16T06:09:04;0.20;64.40
9425;DHT22;17139;52.140;11.636;2023-02-16T06:11:32;0.40;64.50
9425;DHT22;17139;52.140;11.636;2023-02-16T06:14:03;0.40;63.80
9425;DHT22;17139;52.140;11.636;2023-02-16T06:16:32;0.30;64.00
9425;DHT22;17139;52.140;11.636;2023-02-16T06:19:02;0.80;63.90
9425;DHT22;17139;52.140;11.636;2023-02-16T06:21:29;0.70;63.10
9425;DHT22;17139;52.140;11.636;2023-02-16T06:23:57;0.50;63.40
9425;DHT22;17139;52.140;11.636;2023-02-16T06:26:24;0.60;63.80
9425;DHT22;17139;52.140;11.636;2023-02-16T06:28:52;0.50;63.40
9425;DHT22;17139;52.140;11.636;2023-02-16T06:31:19;0.40;63.60
9425;DHT22;17139;52.140;11.636;2023-02-16T06:33:46;0.40;63.90
9425;DHT22;17139;52.140;11.636;2023-02-16T06:36:15;0.30;64.10
9425;DHT22;17139;52.140;11.636;2023-02-16T06:38:43;0.20;64.10
9425;DHT22;17139;52.140;11.636;2023-02-16T06:41:10;0.20;64.20
9425;DHT22;17139;52.140;11.636;2023-02-16T06:43:38;0.20;64.60
9425;DHT22;17139;52.140;11.636;2023-02-16T06:46:05;0.20;64.30
9425;DHT22;17139;52.140;11.636;2023-02-16T06:48:32;0.10;64.30
9425;DHT22;17139;52.140;11.636;2023-02-16T06:50:59;0.10;64.30
9425;DHT22;17139;52.140;11.636;2023-02-16T06:53:28;0.70;63.80
9425;DHT22;17139;52.140;11.636;2023-02-16T06:55:55;0.60;63.00
9425;DHT22;17139;52.140;11.636;2023-02-16T06:58:22;0.50;63.40
9425;DHT22;17139;52.140;11.636;2023-02-16T07:00:50;0.40;63.50
9425;DHT22;17139;52.140;11.636;2023-02-16T07:03:20;0.30;63.70
9425;DHT22;17139;52.140;11.636;2023-02-16T07:05:48;0.20;64.00
9425;DHT22;17139;52.140;11.636;2023-02-16T07:08:15;0.20;64.10
9425;DHT22;17139;52.140;11.636;2023-02-16T07:10:45;0.20;64.20
9425;DHT22;17139;52.140;11.636;2023-02-16T07:13:12;0.20;64.30
9425;DHT22;17139;52.140;11.636;2023-02-16T07:15:39;0.10;64.30
9425;DHT22;17139;52.140;11.636;2023-02-16T07:18:07;0.10;64.30
9425;DHT22;17139;52.140;11.636;2023-02-16T07:20:34;0.10;64.30
9425;DHT22;17139;52.140;11.636;2023-02-16T07:23:02;0.10;64.30
9425;DHT22;17139;52.140;11.636;2023-02-16T07:25:30;0.70;63.90
9425;DHT22;17139;52.140;11.636;2023-02-16T07:27:58;1.10;62.70
9425;DHT22;17139;52.140;11.636;2023-02-16T07:30:26;1.00;62.30
9425;DHT22;17139;52.140;11.636;2023-02-16T07:32:53;0.80;62.70
9425;DHT22;17139;52.140;11.636;2023-02-16T07:35:20;0.70;63.30
9425;DHT22;17139;52.140;11.636;2023-02-16T07:37:48;0.60;63.50
9425;DHT22;17139;52.140;11.636;2023-02-16T07:40:15;0.60;63.70
9425;DHT22;17139;52.140;11.636;2023-02-16T07:42:42;0.60;63.70
9425;DHT22;17139;52.140;11.636;2023-02-16T07:45:11;0.60;63.80
9425;DHT22;17139;52.140;11.636;2023-02-16T07:47:38;0.60;63.70
9425;DHT22;17139;52.140;11.636;2023-02-16T07:50:06;0.70;63.90
9425;DHT22;17139;52.140;11.636;2023-02-16T07:52:34;0.80;63.70
9425;DHT22;17139;52.140;11.636;2023-02-16T07:55:01;0.80;63.60
9425;DHT22;17139;52.140;11.636;2023-02-16T07:57:31;0.80;63.70
9425;DHT22;17139;52.140;11.636;2023-02-16T07:59:58;0.90;63.70
9425;DHT22;17139;52.140;11.636;2023-02-16T08:02:26;0.90;63.50
9425;DHT22;17139;52.140;11.636;2023-02-16T08:04:54;1.00;63.60
9425;DHT22;17139;52.140;11.636;2023-02-16T08:07:21;1.00;63.50
9425;DHT22;17139;52.140;11.636;2023-02-16T08:09:48;1.10;63.60
9425;DHT22;17139;52.140;11.636;2023-02-16T08:12:16;1.10;63.50
9425;DHT22;17139;52.140;11.636;2023-02-16T08:14:44;1.20;63.50
9425;DHT22;17139;52.140;11.636;2023-02-16T08:17:12;1.30;63.50
9425;DHT22;17139;52.140;11.636;2023-02-16T08:19:41;2.00;63.50
9425;DHT22;17139;52.140;11.636;2023-02-16T08:22:08;1.90;62.50
9425;DHT22;17139;52.140;11.636;2023-02-16T08:24:36;2.00;62.80
9425;DHT22;17139;52.140;11.636;2023-02-16T08:27:05;2.00;62.60
9425;DHT22;17139;52.140;11.636;2023-02-16T08:29:32;1.90;62.70
9425;DHT22;17139;52.140;11.636;2023-02-16T08:31:59;2.20;62.80
9425;DHT22;17139;52.140;11.636;2023-02-16T08:34:29;2.20;62.30
9425;DHT22;17139;52.140;11.636;2023-02-16T08:36:59;2.20;62.70
9425;DHT22;17139;52.140;11.636;2023-02-16T08:39:28;2.10;62.80
9425;DHT22;17139;52.140;11.636;2023-02-16T08:41:56;2.10;63.00
9425;DHT22;17139;52.140;11.636;2023-02-16T08:44:24;2.10;63.00
9425;DHT22;17139;52.140;11.636;2023-02-16T08:46:53;2.20;63.10
9425;DHT22;17139;52.140;11.636;2023-02-16T08:49:22;2.60;62.80
9425;DHT22;17139;52.140;11.636;2023-02-16T08:51:51;3.00;61.70
9425;DHT22;17139;52.140;11.636;2023-02-16T08:54:23;2.90;61.50
9425;DHT22;17139;52.140;11.636;2023-02-16T08:56:52;2.80;62.00
9425;DHT22;17139;52.140;11.636;2023-02-16T08:59:21;2.70;62.40
9425;DHT22;17139;52.140;11.636;2023-02-16T09:01:49;2.70;62.70
9425;DHT22;17139;52.140;11.636;2023-02-16T09:04:17;2.60;62.80
9425;DHT22;17139;52.140;11.636;2023-02-16T09:06:46;2.60;62.90
9425;DHT22;17139;52.140;11.636;2023-02-16T09:09:15;2.70;62.90
9425;DHT22;17139;52.140;11.636;2023-02-16T09:11:44;2.70;62.90
9425;DHT22;17139;52.140;11.636;2023-02-16T09:14:11;2.70;62.90
9425;DHT22;17139;52.140;11.636;2023-02-16T09:16:39;2.70;63.00
9425;DHT22;17139;52.140;11.636;2023-02-16T09:19:11;2.80;63.00
9425;DHT22;17139;52.140;11.636;2023-02-16T09:21:39;3.50;61.90
9425;DHT22;17139;52.140;11.636;2023-02-16T09:24:08;3.40;61.60
9425;DHT22;17139;52.140;11.636;2023-02-16T09:26:37;3.30;62.00
9425;DHT22;17139;52.140;11.636;2023-02-16T09:29:09;3.30;62.40
9425;DHT22;17139;52.140;11.636;2023-02-16T09:31:37;3.30;62.40
9425;DHT22;17139;52.140;11.636;2023-02-16T09:34:08;3.30;62.50
9425;DHT22;17139;52.140;11.636;2023-02-16T09:36:40;3.40;62.50
9425;DHT22;17139;52.140;11.636;2023-02-16T09:39:08;3.50;62.60
9425;DHT22;17139;52.140;11.636;2023-02-16T09:41:52;3.60;62.70
9425;DHT22;17139;52.140;11.636;2023-02-16T09:44:27;3.70;62.60
9425;DHT22;17139;52.140;11.636;2023-02-16T09:47:00;3.70;62.40
9425;DHT22;17139;52.140;11.636;2023-02-16T09:49:31;3.90;62.50
9425;DHT22;17139;52.140;11.636;2023-02-16T09:52:03;4.00;62.40
9425;DHT22;17139;52.140;11.636;2023-02-16T09:54:41;4.10;62.20
9425;DHT22;17139;52.140;11.636;2023-02-16T09:57:16;4.10;62.20
9425;DHT22;17139;52.140;11.636;2023-02-16T09:59:51;4.20;62.30
9425;DHT22;17139;52.140;11.636;2023-02-16T10:02:39;4.20;62.40
9425;DHT22;17139;52.140;11.636;2023-02-16T10:05:17;4.30;62.40
9425;DHT22;17139;52.140;11.636;2023-02-16T10:08:04;4.40;62.50
9425;DHT22;17139;52.140;11.636;2023-02-16T10:10:42;4.40;62.40
9425;DHT22;17139;52.140;11.636;2023-02-16T10:13:17;4.50;62.50
9425;DHT22;17139;52.140;11.636;2023-02-16T10:15:49;4.50;62.50
9425;DHT22;17139;52.140;11.636;2023-02-16T10:18:22;5.30;61.30
9425;DHT22;17139;52.140;11.636;2023-02-16T10:20:53;5.20;61.10
9425;DHT22;17139;52.140;11.636;2023-02-16T10:23:44;5.20;61.60
9425;DHT22;17139;52.140;11.636;2023-02-16T10:26:16;5.20;61.80
9425;DHT22;17139;52.140;11.636;2023-02-16T10:28:49;5.10;62.10
9425;DHT22;17139;52.140;11.636;2023-02-16T10:31:23;5.10;62.10
9425;DHT22;17139;52.140;11.636;2023-02-16T10:34:03;5.20;62.30
9425;DHT22;17139;52.140;11.636;2023-02-16T10:36:44;5.80;61.00
9425;DHT22;17139;52.140;11.636;2023-02-16T10:39:23;6.30;59.90
9425;DHT22;17139;52.140;11.636;2023-02-16T10:41:59;6.10;60.50
9425;DHT22;17139;52.140;11.636;2023-02-16T10:44:32;5.90;61.10
9425;DHT22;17139;52.140;11.636;2023-02-16T10:47:04;5.80;61.50
9425;DHT22;17139;52.140;11.636;2023-02-16T10:49:34;5.80;61.80
9425;DHT22;17139;52.140;11.636;2023-02-16T10:52:02;5.80;62.10
9425;DHT22;17139;52.140;11.636;2023-02-16T10:54:32;5.80;62.10
9425;DHT22;17139;52.140;11.636;2023-02-16T10:57:01;5.80;62.20
9425;DHT22;17139;52.140;11.636;2023-02-16T10:59:33;5.90;62.30
9425;DHT22;17139;52.140;11.636;2023-02-16T11:02:19;5.90;62.20
9425;DHT22;17139;52.140;11.636;2023-02-16T11:04:51;6.00;62.10
9425;DHT22;17139;52.140;11.636;2023-02-16T11:07:20;6.20;61.60
9425;DHT22;17139;52.140;11.636;2023-02-16T11:09:50;6.50;59.80
9425;DHT22;17139;52.140;11.636;2023-02-16T11:12:27;6.50;60.10
9425;DHT22;17139;52.140;11.636;2023-02-16T11:14:59;6.50;60.20
9425;DHT22;17139;52.140;11.636;2023-02-16T11:17:29;6.50;60.50
9425;DHT22;17139;52.140;11.636;2023-02-16T11:19:59;6.60;60.60
9425;DHT22;17139;52.140;11.636;2023-02-16T11:22:33;6.70;60.50
9425;DHT22;17139;52.140;11.636;2023-02-16T11:25:23;6.80;60.50
9425;DHT22;17139;52.140;11.636;2023-02-16T11:27:53;6.90;60.60
9425;DHT22;17139;52.140;11.636;2023-02-16T11:30:33;6.90;60.60
9425;DHT22;17139;52.140;11.636;2023-02-16T11:33:04;7.10;60.10
9425;DHT22;17139;52.140;11.636;2023-02-16T11:35:40;7.20;60.30
9425;DHT22;17139;52.140;11.636;2023-02-16T11:38:28;7.40;59.80
9425;DHT22;17139;52.140;11.636;2023-02-16T11:40:57;7.40;60.00
9425;DHT22;17139;52.140;11.636;2023-02-16T11:43:27;7.40;60.30
9425;DHT22;17139;52.140;11.636;2023-02-16T11:45:59;7.50;60.40
9425;DHT22;17139;52.140;11.636;2023-02-16T11:48:31;7.60;60.50
9425;DHT22;17139;52.140;11.636;2023-02-16T11:51:00;7.60;60.50
9425;DHT22;17139;52.140;11.636;2023-02-16T11:53:29;7.70;60.50
9425;DHT22;17139;52.140;11.636;2023-02-16T11:56:20;7.80;60.50
9425;DHT22;17139;52.140;11.636;2023-02-16T12:02:12;8.00;60.60
9425;DHT22;17139;52.140;11.636;2023-02-16T12:05:09;9.00;57.50
9425;DHT22;17139;52.140;11.636;2023-02-16T12:07:47;8.70;58.80
9425;DHT22;17139;52.140;11.636;2023-02-16T12:10:21;8.60;59.40
9425;DHT22;17139;52.140;11.636;2023-02-16T12:12:58;8.50;59.70
9425;DHT22;17139;52.140;11.636;2023-02-16T12:15:32;8.60;60.00
9425;DHT22;17139;52.140;11.636;2023-02-16T12:18:23;8.60;60.00
9425;DHT22;17139;52.140;11.636;2023-02-16T12:20:57;8.80;60.10
9425;DHT22;17139;52.140;11.636;2023-02-16T12:23:36;8.80;60.10
9425;DHT22;17139;52.140;11.636;2023-02-16T12:26:29;8.90;60.10
9425;DHT22;17139;52.140;11.636;2023-02-16T12:29:05;9.00;60.10
9425;DHT22;17139;52.140;11.636;2023-02-16T12:31:47;9.10;60.20
9425;DHT22;17139;52.140;11.636;2023-02-16T12:34:26;9.20;59.60
9425;DHT22;17139;52.140;11.636;2023-02-16T12:37:03;9.20;59.80
9425;DHT22;17139;52.140;11.636;2023-02-16T12:39:38;9.30;59.90
9425;DHT22;17139;52.140;11.636;2023-02-16T12:42:28;9.40;59.90
9425;DHT22;17139;52.140;11.636;2023-02-16T12:45:05;9.50;59.90
9425;DHT22;17139;52.140;11.636;2023-02-16T12:47:37;9.50;59.90
9425;DHT22;17139;52.140;11.636;2023-02-16T12:50:15;9.60;60.00
9425;DHT22;17139;52.140;11.636;2023-02-16T12:52:50;9.70;60.10
9425;DHT22;17139;52.140;11.636;2023-02-16T12:55:23;9.70;60.10
9425;DHT22;17139;52.140;11.636;2023-02-16T12:57:58;9.70;60.10
9425;DHT22;17139;52.140;11.636;2023-02-16T13:00:36;10.40;57.50
9425;DHT22;17139;52.140;11.636;2023-02-16T13:03:15;10.80;56.30
9425;DHT22;17139;52.140;11.636;2023-02-16T13:05:49;10.50;57.90
9425;DHT22;17139;52.140;11.636;2023-02-16T13:08:23;10.40;58.70
9425;DHT22;17139;52.140;11.636;2023-02-16T13:10:58;10.30;59.00
9425;DHT22;17139;52.140;11.636;2023-02-16T13:13:33;10.30;59.30
9425;DHT22;17139;52.140;11.636;2023-02-16T13:16:05;10.30;59.50
9425;DHT22;17139;52.140;11.636;2023-02-16T13:18:36;10.30;59.60
9425;DHT22;17139;52.140;11.636;2023-02-16T13:21:09;10.30;59.70
9425;DHT22;17139;52.140;11.636;2023-02-16T13:23:48;10.30;59.70
9425;DHT22;17139;52.140;11.636;2023-02-16T13:26:38;11.10;56.00
9425;DHT22;17139;52.140;11.636;2023-02-16T13:29:30;10.90;57.90
9425;DHT22;17139;52.140;11.636;2023-02-16T13:32:08;11.20;55.70
9425;DHT22;17139;52.140;11.636;2023-02-16T13:34:57;10.90;57.60
9425;DHT22;17139;52.140;11.636;2023-02-16T13:37:45;10.60;58.40
9425;DHT22;17139;52.140;11.636;2023-02-16T13:43:36;10.40;59.50
9425;DHT22;17139;52.140;11.636;2023-02-16T13:46:12;10.30;59.80
9425;DHT22;17139;52.140;11.636;2023-02-16T13:48:45;10.30;59.90
9425;DHT22;17139;52.140;11.636;2023-02-16T13:51:16;10.30;59.90
9425;DHT22;17139;52.140;11.636;2023-02-16T13:53:52;10.30;59.80
9425;DHT22;17139;52.140;11.636;2023-02-16T13:56:25;10.40;59.80
9425;DHT22;17139;52.140;11.636;2023-02-16T14:01:42;11.40;55.00
9425;DHT22;17139;52.140;11.636;2023-02-16T14:04:12;11.10;57.10
9425;DHT22;17139;52.140;11.636;2023-02-16T14:06:40;10.90;58.00
9425;DHT22;17139;52.140;11.636;2023-02-16T14:12:17;10.60;58.70
9425;DHT22;17139;52.140;11.636;2023-02-16T14:14:59;10.60;59.40
9425;DHT22;17139;52.140;11.636;2023-02-16T14:17:29;10.50;59.50
9425;DHT22;17139;52.140;11.636;2023-02-16T14:19:58;10.50;59.70
9425;DHT22;17139;52.140;11.636;2023-02-16T14:22:46;10.50;59.80
9425;DHT22;17139;52.140;11.636;2023-02-16T14:25:30;10.50;59.70
9425;DHT22;17139;52.140;11.636;2023-02-16T14:28:00;11.40;55.80
9425;DHT22;17139;52.140;11.636;2023-02-16T14:30:34;11.00;57.50
9425;DHT22;17139;52.140;11.636;2023-02-16T14:33:17;10.80;58.30
9425;DHT22;17139;52.140;11.636;2023-02-16T14:36:02;11.40;55.90
9425;DHT22;17139;52.140;11.636;2023-02-16T14:38:33;11.60;55.10
9425;DHT22;17139;52.140;11.636;2023-02-16T14:41:03;11.10;57.50
9425;DHT22;17139;52.140;11.636;2023-02-16T14:43:34;10.80;57.90
9425;DHT22;17139;52.140;11.636;2023-02-16T14:46:32;10.70;58.60
9425;DHT22;17139;52.140;11.636;2023-02-16T14:49:39;10.60;59.00
9425;DHT22;17139;52.140;11.636;2023-02-16T14:52:47;10.50;59.40
9425;DHT22;17139;52.140;11.636;2023-02-16T14:58:29;10.20;59.80
9425;DHT22;17139;52.140;11.636;2023-02-16T15:01:03;10.10;60.10
9425;DHT22;17139;52.140;11.636;2023-02-16T15:03:44;10.90;56.60
9425;DHT22;17139;52.140;11.636;2023-02-16T15:06:27;11.30;55.00
9425;DHT22;17139;52.140;11.636;2023-02-16T15:08:58;10.80;57.00
9425;DHT22;17139;52.140;11.636;2023-02-16T15:11:30;10.50;58.30
9425;DHT22;17139;52.140;11.636;2023-02-16T15:14:04;10.30;58.90
9425;DHT22;17139;52.140;11.636;2023-02-16T15:16:33;10.20;59.30
9425;DHT22;17139;52.140;11.636;2023-02-16T15:19:08;10.10;59.60
9425;DHT22;17139;52.140;11.636;2023-02-16T15:21:35;10.10;59.70
9425;DHT22;17139;52.140;11.636;2023-02-16T15:24:03;10.00;59.90
9425;DHT22;17139;52.140;11.636;2023-02-16T15:26:34;9.90;59.90
9425;DHT22;17139;52.140;11.636;2023-02-16T15:29:20;10.30;58.40
9425;DHT22;17139;52.140;11.636;2023-02-16T15:31:48;10.20;58.90
9425;DHT22;17139;52.140;11.636;2023-02-16T15:34:28;10.10;58.90
9425;DHT22;17139;52.140;11.636;2023-02-16T15:36:58;10.00;59.20
9425;DHT22;17139;52.140;11.636;2023-02-16T15:39:28;9.80;59.60
9425;DHT22;17139;52.140;11.636;2023-02-16T15:42:18;9.80;59.80
9425;DHT22;17139;52.140;11.636;2023-02-16T15:44:47;9.70;59.80
9425;DHT22;17139;52.140;11.636;2023-02-16T15:47:15;9.70;60.10
9425;DHT22;17139;52.140;11.636;2023-02-16T15:49:44;9.70;60.10
9425;DHT22;17139;52.140;11.636;2023-02-16T15:52:13;9.60;60.00
9425;DHT22;17139;52.140;11.636;2023-02-16T15:54:43;9.60;59.50
9425;DHT22;17139;52.140;11.636;2023-02-16T15:57:17;9.60;60.00
9425;DHT22;17139;52.140;11.636;2023-02-16T15:59:47;9.60;60.20
9425;DHT22;17139;52.140;11.636;2023-02-16T16:02:17;10.40;56.90
9425;DHT22;17139;52.140;11.636;2023-02-16T16:04:48;10.90;55.20
9425;DHT22;17139;52.140;11.636;2023-02-16T16:07:24;10.50;56.90
9425;DHT22;17139;52.140;11.636;2023-02-16T16:09:52;10.20;58.10
9425;DHT22;17139;52.140;11.636;2023-02-16T16:12:20;10.20;58.00
9425;DHT22;17139;52.140;11.636;2023-02-16T16:14:50;9.90;58.50
9425;DHT22;17139;52.140;11.636;2023-02-16T16:17:22;9.80;59.10
9425;DHT22;17139;52.140;11.636;2023-02-16T16:19:51;9.70;59.60
9425;DHT22;17139;52.140;11.636;2023-02-16T16:22:33;9.70;59.20
9425;DHT22;17139;52.140;11.636;2023-02-16T16:25:02;9.60;60.00
9425;DHT22;17139;52.140;11.636;2023-02-16T16:27:49;9.50;59.90
9425;DHT22;17139;52.140;11.636;2023-02-16T16:30:27;10.10;57.70
9425;DHT22;17139;52.140;11.636;2023-02-16T16:32:59;9.90;58.40
9425;DHT22;17139;52.140;11.636;2023-02-16T16:35:37;9.60;59.60